createdAt,value
2022-09-21T00:01:15.091Z,99.90
2022-09-21T00:03:43.449Z,99.90
2022-09-21T00:06:15.437Z,99.90
2022-09-21T00:08:42.998Z,99.90
2022-09-21T00:11:20.596Z,99.90
2022-09-21T00:13:47.821Z,99.90
2022-09-21T00:16:17.186Z,99.90
2022-09-21T00:18:44.962Z,99.90
2022-09-21T00:21:15.453Z,99.90
2022-09-21T00:23:43.259Z,99.90
2022-09-21T00:26:13.470Z,99.90
2022-09-21T00:28:40.774Z,99.90
2022-09-21T00:31:14.414Z,99.90
2022-09-21T00:33:43.472Z,99.90
2022-09-21T00:36:19.347Z,99.60
2022-09-21T00:38:54.324Z,99.70
2022-09-21T00:41:21.705Z,99.30
2022-09-21T00:44:08.647Z,99.90
2022-09-21T00:46:39.179Z,99.90
2022-09-21T00:49:06.602Z,99.90
2022-09-21T00:51:33.765Z,99.90
2022-09-21T00:54:04.299Z,99.90
2022-09-21T00:56:31.157Z,99.90
2022-09-21T00:58:58.434Z,99.90
2022-09-21T01:01:25.389Z,99.90
2022-09-21T01:03:53.443Z,99.90
2022-09-21T01:06:21.305Z,99.90
2022-09-21T01:08:54.855Z,99.90
2022-09-21T01:11:34.466Z,99.90
2022-09-21T01:14:01.347Z,99.90
2022-09-21T01:16:42.651Z,99.90
2022-09-21T01:19:31.637Z,99.90
2022-09-21T01:22:19.350Z,99.90
2022-09-21T01:25:02.031Z,99.90
2022-09-21T01:27:58.352Z,99.90
2022-09-21T01:30:25.897Z,99.90
2022-09-21T01:33:17.373Z,99.90
2022-09-21T01:35:49.100Z,99.90
2022-09-21T01:38:53.242Z,99.90
2022-09-21T01:41:26.175Z,99.90
2022-09-21T01:43:56.869Z,99.90
2022-09-21T01:46:29.061Z,99.90
2022-09-21T01:49:04.769Z,99.90
2022-09-21T01:51:33.916Z,99.90
2022-09-21T01:54:15.467Z,99.90
2022-09-21T01:56:46.822Z,99.90
2022-09-21T01:59:27.243Z,99.90
2022-09-21T02:02:04.873Z,99.90
2022-09-21T02:04:35.098Z,99.90
2022-09-21T02:07:02.539Z,99.90
2022-09-21T02:09:29.696Z,99.90
2022-09-21T02:11:58.217Z,99.90
2022-09-21T02:14:25.939Z,99.90
2022-09-21T02:17:27.120Z,99.90
2022-09-21T02:20:19.484Z,99.90
2022-09-21T02:22:52.451Z,99.90
2022-09-21T02:25:51.179Z,99.90
2022-09-21T02:28:34.474Z,99.90
2022-09-21T02:31:42.037Z,99.90
2022-09-21T02:34:08.789Z,99.90
2022-09-21T02:37:20.582Z,99.90
2022-09-21T02:40:17.939Z,99.90
2022-09-21T02:42:49.436Z,99.90
2022-09-21T02:45:24.658Z,99.90
2022-09-21T02:47:53.698Z,99.90
2022-09-21T02:50:25.978Z,99.90
2022-09-21T02:52:54.888Z,99.90
2022-09-21T02:55:22.818Z,99.90
2022-09-21T02:57:50.419Z,99.90
2022-09-21T03:00:18.191Z,99.90
2022-09-21T03:02:46.406Z,99.90
2022-09-21T03:05:16.962Z,99.90
2022-09-21T03:07:45.086Z,99.90
2022-09-21T03:10:11.874Z,99.90
2022-09-21T03:12:38.763Z,99.90
2022-09-21T03:15:06.288Z,99.90
2022-09-21T03:17:33.152Z,99.90
2022-09-21T03:20:00.029Z,99.90
2022-09-21T03:22:27.564Z,99.90
2022-09-21T03:24:57.490Z,99.90
2022-09-21T03:27:24.530Z,99.90
2022-09-21T03:29:51.414Z,99.90
2022-09-21T03:32:18.375Z,99.90
2022-09-21T03:34:45.252Z,99.90
2022-09-21T03:37:14.756Z,99.90
2022-09-21T03:39:41.661Z,99.90
2022-09-21T03:42:09.994Z,99.90
2022-09-21T03:44:37.499Z,99.90
2022-09-21T03:47:07.143Z,99.90
2022-09-21T03:49:35.425Z,99.90
2022-09-21T03:52:03.513Z,99.90
2022-09-21T03:54:30.315Z,99.90
2022-09-21T03:56:57.167Z,99.90
2022-09-21T03:59:25.479Z,99.90
2022-09-21T04:01:52.308Z,99.90
2022-09-21T04:04:19.173Z,99.90
2022-09-21T04:06:46.235Z,99.90
2022-09-21T04:09:13.440Z,99.90
2022-09-21T04:11:40.400Z,99.90
2022-09-21T04:14:08.096Z,99.90
2022-09-21T04:16:35.120Z,99.90
2022-09-21T04:19:01.960Z,99.90
2022-09-21T04:21:30.073Z,99.90
2022-09-21T04:23:57.127Z,99.90
2022-09-21T04:26:30.110Z,99.90
2022-09-21T04:28:57.672Z,99.90
2022-09-21T04:31:25.743Z,99.90
2022-09-21T04:33:53.727Z,99.90
2022-09-21T04:36:21.447Z,99.90
2022-09-21T04:38:48.448Z,99.90
2022-09-21T04:41:16.491Z,99.90
2022-09-21T04:43:44.251Z,99.90
2022-09-21T04:46:13.873Z,99.90
2022-09-21T04:48:41.653Z,99.90
2022-09-21T04:51:09.473Z,99.90
2022-09-21T04:53:38.610Z,99.90
2022-09-21T04:56:06.895Z,99.90
2022-09-21T04:58:33.910Z,99.90
2022-09-21T05:01:01.795Z,99.90
2022-09-21T05:03:29.535Z,99.90
2022-09-21T05:05:58.117Z,99.90
2022-09-21T05:08:45.023Z,99.90
2022-09-21T05:11:15.929Z,99.90
2022-09-21T05:13:43.256Z,99.90
2022-09-21T05:16:10.313Z,99.90
2022-09-21T05:18:37.296Z,99.90
2022-09-21T05:21:06.180Z,99.90
2022-09-21T05:23:33.396Z,99.90
2022-09-21T05:26:00.724Z,99.90
2022-09-21T05:28:28.467Z,99.90
2022-09-21T05:31:16.766Z,99.90
2022-09-21T05:34:12.111Z,99.90
2022-09-21T05:36:49.838Z,99.90
2022-09-21T05:39:17.064Z,99.90
2022-09-21T05:41:44.177Z,99.90
2022-09-21T05:44:16.607Z,99.90
2022-09-21T05:47:08.677Z,99.90
2022-09-21T05:50:13.527Z,99.90
2022-09-21T05:53:05.504Z,99.90
2022-09-21T05:55:40.175Z,99.90
2022-09-21T05:58:49.229Z,99.90
2022-09-21T06:01:31.514Z,99.90
2022-09-21T06:03:59.904Z,99.90
2022-09-21T06:06:26.941Z,99.90
2022-09-21T06:08:53.895Z,99.90
2022-09-21T06:11:21.327Z,99.90
2022-09-21T06:13:48.169Z,99.90
2022-09-21T06:16:15.357Z,99.90
2022-09-21T06:18:42.579Z,99.90
2022-09-21T06:21:09.697Z,99.90
2022-09-21T06:23:36.840Z,99.90
2022-09-21T06:26:04.262Z,99.90
2022-09-21T06:28:31.150Z,99.90
2022-09-21T06:30:58.690Z,99.90
2022-09-21T06:33:27.471Z,99.90
2022-09-21T06:35:58.630Z,99.90
2022-09-21T06:38:27.089Z,99.90
2022-09-21T06:40:54.391Z,99.70
2022-09-21T06:43:22.240Z,99.10
2022-09-21T06:45:57.135Z,98.20
2022-09-21T06:48:25.287Z,97.80
2022-09-21T06:50:52.103Z,97.40
2022-09-21T06:53:20.637Z,97.40
2022-09-21T06:55:47.480Z,97.50
2022-09-21T06:58:14.330Z,96.90
2022-09-21T07:00:41.204Z,96.70
2022-09-21T07:03:11.632Z,96.60
2022-09-21T07:05:38.430Z,96.60
2022-09-21T07:08:05.830Z,96.60
2022-09-21T07:10:33.135Z,96.10
2022-09-21T07:13:05.102Z,96.10
2022-09-21T07:15:32.933Z,96.00
2022-09-21T07:18:06.942Z,95.90
2022-09-21T07:20:33.899Z,96.10
2022-09-21T07:23:01.802Z,95.90
2022-09-21T07:25:29.066Z,96.10
2022-09-21T07:27:56.147Z,96.10
2022-09-21T07:30:23.794Z,96.00
2022-09-21T07:32:50.641Z,96.30
2022-09-21T07:35:17.523Z,95.90
2022-09-21T07:37:44.363Z,95.90
2022-09-21T07:40:11.400Z,95.70
2022-09-21T07:42:38.225Z,95.10
2022-09-21T07:45:06.688Z,95.40
2022-09-21T07:47:33.538Z,95.00
2022-09-21T07:50:00.366Z,94.70
2022-09-21T07:52:27.909Z,94.70
2022-09-21T07:54:54.722Z,94.60
2022-09-21T07:57:40.126Z,94.60
2022-09-21T08:00:07.918Z,94.20
2022-09-21T08:02:41.688Z,93.70
2022-09-21T08:05:11.111Z,93.60
2022-09-21T08:07:38.142Z,93.20
2022-09-21T08:10:05.415Z,92.60
2022-09-21T08:12:32.235Z,92.60
2022-09-21T08:14:59.171Z,92.20
2022-09-21T08:17:26.115Z,92.20
2022-09-21T08:19:54.241Z,91.90
2022-09-21T08:22:25.614Z,92.10
2022-09-21T08:24:52.665Z,91.90
2022-09-21T08:27:20.340Z,91.70
2022-09-21T08:29:47.445Z,91.60
2022-09-21T08:32:33.073Z,91.30
2022-09-21T08:35:01.530Z,91.00
2022-09-21T08:37:29.691Z,90.90
2022-09-21T08:39:56.431Z,90.80
2022-09-21T08:42:36.999Z,90.70
2022-09-21T08:45:13.674Z,90.60
2022-09-21T08:47:55.317Z,90.30
2022-09-21T08:50:22.197Z,89.90
2022-09-21T08:52:52.276Z,90.10
2022-09-21T08:55:24.243Z,89.30
2022-09-21T08:57:52.080Z,90.00
2022-09-21T09:00:19.839Z,89.10
2022-09-21T09:02:55.997Z,88.30
2022-09-21T09:05:41.209Z,88.10
2022-09-21T09:08:34.539Z,87.90
2022-09-21T09:11:26.178Z,86.20
2022-09-21T09:14:20.847Z,85.90
2022-09-21T09:17:07.811Z,85.50
2022-09-21T09:19:46.240Z,84.90
2022-09-21T09:22:20.769Z,86.10
2022-09-21T09:24:53.964Z,86.10
2022-09-21T09:27:40.529Z,84.80
2022-09-21T09:30:19.803Z,83.70
2022-09-21T09:33:17.441Z,82.90
2022-09-21T09:36:05.889Z,82.70
2022-09-21T09:38:40.722Z,82.90
2022-09-21T09:41:07.603Z,83.50
2022-09-21T09:43:53.152Z,83.40
2022-09-21T09:46:34.353Z,82.60
2022-09-21T09:49:17.791Z,82.80
2022-09-21T09:51:44.759Z,82.20
2022-09-21T09:54:17.626Z,83.70
2022-09-21T09:56:45.697Z,83.50
2022-09-21T09:59:40.072Z,82.30
2022-09-21T10:02:11.892Z,82.40
2022-09-21T10:05:03.971Z,81.80
2022-09-21T10:07:47.950Z,80.40
2022-09-21T10:10:36.691Z,78.70
2022-09-21T10:13:06.530Z,78.00
2022-09-21T10:15:33.703Z,78.60
2022-09-21T10:18:06.430Z,77.90
2022-09-21T10:20:34.021Z,78.00
2022-09-21T10:23:03.412Z,76.90
2022-09-21T10:25:31.491Z,75.70
2022-09-21T10:28:00.711Z,75.70
2022-09-21T10:30:35.112Z,73.90
2022-09-21T10:33:02.465Z,73.20
2022-09-21T10:35:30.348Z,72.60
2022-09-21T10:38:22.177Z,72.20
2022-09-21T10:40:50.625Z,71.70
2022-09-21T10:43:43.653Z,71.30
2022-09-21T10:46:12.081Z,68.30
2022-09-21T10:48:39.890Z,66.00
2022-09-21T10:51:20.439Z,64.60
2022-09-21T10:53:53.710Z,65.60
2022-09-21T10:56:21.609Z,65.90
2022-09-21T10:59:19.628Z,65.20
2022-09-21T11:01:48.891Z,63.80
2022-09-21T11:04:34.002Z,63.00
2022-09-21T11:07:27.451Z,62.20
2022-09-21T11:10:34.138Z,59.60
2022-09-21T11:13:14.763Z,59.40
2022-09-21T11:16:03.058Z,60.00
2022-09-21T11:19:20.625Z,61.00
2022-09-21T11:21:59.055Z,60.20
2022-09-21T11:25:03.721Z,59.60
2022-09-21T11:27:43.964Z,61.00
2022-09-21T11:30:18.935Z,61.90
2022-09-21T11:33:25.006Z,61.90
2022-09-21T11:36:00.646Z,59.90
2022-09-21T11:38:46.773Z,59.30
2022-09-21T11:41:49.983Z,60.70
2022-09-21T11:44:28.607Z,58.80
2022-09-21T11:47:20.434Z,59.30
2022-09-21T11:50:29.193Z,58.20
2022-09-21T11:53:39.107Z,59.40
2022-09-21T11:56:38.904Z,59.00
2022-09-21T11:59:34.633Z,59.80
2022-09-21T12:02:25.128Z,59.80
2022-09-21T12:04:58.692Z,57.80
2022-09-21T12:07:45.514Z,58.10
2022-09-21T12:10:32.224Z,58.00
2022-09-21T12:13:12.519Z,60.00
2022-09-21T12:15:51.512Z,56.90
2022-09-21T12:18:47.943Z,56.70
2022-09-21T12:21:28.989Z,58.30
2022-09-21T12:23:59.710Z,56.70
2022-09-21T12:26:34.672Z,57.50
2022-09-21T12:29:07.403Z,57.70
2022-09-21T12:31:58.569Z,56.00
2022-09-21T12:34:31.662Z,57.10
2022-09-21T12:37:37.148Z,56.30
2022-09-21T12:40:27.928Z,58.20
2022-09-21T12:43:59.487Z,58.10
2022-09-21T12:46:41.831Z,58.50
2022-09-21T12:49:17.562Z,56.20
2022-09-21T12:51:50.816Z,56.50
2022-09-21T12:55:04.182Z,56.80
2022-09-21T12:58:14.445Z,57.60
2022-09-21T13:01:09.294Z,56.30
2022-09-21T13:03:59.828Z,56.20
2022-09-21T13:07:21.010Z,55.80
2022-09-21T13:09:50.639Z,56.00
2022-09-21T13:12:25.018Z,56.30
2022-09-21T13:14:59.203Z,56.10
2022-09-21T13:17:31.184Z,56.20
2022-09-21T13:20:02.537Z,56.20
2022-09-21T13:22:34.957Z,56.50
2022-09-21T13:25:23.801Z,56.30
2022-09-21T13:28:00.873Z,55.90
2022-09-21T13:31:09.961Z,55.00
2022-09-21T13:34:15.569Z,55.10
2022-09-21T13:36:43.396Z,54.50
2022-09-21T13:39:14.404Z,54.00
2022-09-21T13:41:59.348Z,54.90
2022-09-21T13:44:28.283Z,55.10
2022-09-21T13:46:57.224Z,55.00
2022-09-21T13:49:58.360Z,54.80
2022-09-21T13:52:39.591Z,54.80
2022-09-21T13:55:24.354Z,55.30
2022-09-21T13:57:55.747Z,55.20
2022-09-21T14:00:22.552Z,56.00
2022-09-21T14:02:49.513Z,57.50
2022-09-21T14:05:23.421Z,56.70
2022-09-21T14:08:07.216Z,55.60
2022-09-21T14:10:38.159Z,55.70
2022-09-21T14:13:43.915Z,57.30
2022-09-21T14:16:29.442Z,57.10
2022-09-21T14:18:56.887Z,56.40
2022-09-21T14:21:23.970Z,56.60
2022-09-21T14:24:06.439Z,57.30
2022-09-21T14:26:55.769Z,57.10
2022-09-21T14:29:54.591Z,56.90
2022-09-21T14:32:24.936Z,57.20
2022-09-21T14:35:01.472Z,57.20
2022-09-21T14:37:33.639Z,58.00
2022-09-21T14:40:05.917Z,58.60
2022-09-21T14:42:33.251Z,57.20
2022-09-21T14:45:06.939Z,56.80
2022-09-21T14:47:58.652Z,57.70
2022-09-21T14:50:33.787Z,57.30
2022-09-21T14:53:17.674Z,57.80
2022-09-21T14:56:21.108Z,57.40
2022-09-21T14:59:07.619Z,57.60
2022-09-21T15:01:35.848Z,58.10
2022-09-21T15:04:30.333Z,58.50
2022-09-21T15:07:41.979Z,58.40
2022-09-21T15:10:53.050Z,59.00
2022-09-21T15:13:36.318Z,58.70
2022-09-21T15:16:20.193Z,58.90
2022-09-21T15:18:48.908Z,59.20
2022-09-21T15:21:28.045Z,59.40
2022-09-21T15:23:56.421Z,58.70
2022-09-21T15:26:29.243Z,59.70
2022-09-21T15:29:15.699Z,59.70
2022-09-21T15:31:42.860Z,59.30
2022-09-21T15:34:12.999Z,59.20
2022-09-21T15:36:42.162Z,59.50
2022-09-21T15:39:22.159Z,59.80
2022-09-21T15:41:50.991Z,59.60
2022-09-21T15:44:19.133Z,59.80
2022-09-21T15:46:47.349Z,60.40
2022-09-21T15:49:17.885Z,61.00
2022-09-21T15:51:46.136Z,61.10
2022-09-21T15:54:15.947Z,60.80
2022-09-21T15:56:45.455Z,60.50
2022-09-21T15:59:20.817Z,61.30
2022-09-21T16:01:50.831Z,61.30
2022-09-21T16:04:22.003Z,61.00
2022-09-21T16:07:06.683Z,61.10
2022-09-21T16:09:40.562Z,61.10
2022-09-21T16:12:26.108Z,61.30
2022-09-21T16:14:53.750Z,62.00
2022-09-21T16:17:27.335Z,62.30
2022-09-21T16:19:54.133Z,62.70
2022-09-21T16:22:23.422Z,62.90
2022-09-21T16:24:54.681Z,63.20
2022-09-21T16:27:25.215Z,63.40
2022-09-21T16:29:53.870Z,64.00
2022-09-21T16:32:33.351Z,63.70
2022-09-21T16:35:29.091Z,64.60
2022-09-21T16:37:58.982Z,64.00
2022-09-21T16:40:27.907Z,64.40
2022-09-21T16:42:56.067Z,64.50
2022-09-21T16:45:25.085Z,64.60
2022-09-21T16:47:53.424Z,65.00
2022-09-21T16:50:20.383Z,65.30
2022-09-21T16:52:52.464Z,65.80
2022-09-21T16:55:22.443Z,66.10
2022-09-21T16:57:51.183Z,66.40
2022-09-21T17:00:22.170Z,66.70
2022-09-21T17:02:49.630Z,67.30
2022-09-21T17:05:22.885Z,67.70
2022-09-21T17:07:56.459Z,68.30
2022-09-21T17:10:29.053Z,69.20
2022-09-21T17:12:56.916Z,69.40
2022-09-21T17:15:24.954Z,69.60
2022-09-21T17:17:51.746Z,70.20
2022-09-21T17:20:32.877Z,70.70
2022-09-21T17:23:01.404Z,71.10
2022-09-21T17:25:29.260Z,71.50
2022-09-21T17:28:00.029Z,71.30
2022-09-21T17:30:29.103Z,71.80
2022-09-21T17:32:58.302Z,71.80
2022-09-21T17:35:33.135Z,72.40
2022-09-21T17:38:00.657Z,72.60
2022-09-21T17:40:28.075Z,72.60
2022-09-21T17:43:13.176Z,73.20
2022-09-21T17:45:50.503Z,73.60
2022-09-21T17:48:20.444Z,74.70
2022-09-21T17:50:48.834Z,74.90
2022-09-21T17:53:34.527Z,75.40
2022-09-21T17:56:40.126Z,75.60
2022-09-21T17:59:26.213Z,75.60
2022-09-21T18:01:53.947Z,75.40
2022-09-21T18:04:21.155Z,75.20
2022-09-21T18:06:48.343Z,75.70
2022-09-21T18:09:15.561Z,75.60
2022-09-21T18:11:51.106Z,76.30
2022-09-21T18:14:24.947Z,77.10
2022-09-21T18:17:06.771Z,77.40
2022-09-21T18:20:04.626Z,77.50
2022-09-21T18:22:54.180Z,77.50
2022-09-21T18:25:36.046Z,77.70
2022-09-21T18:28:16.052Z,77.70
2022-09-21T18:30:51.067Z,77.80
2022-09-21T18:33:43.003Z,78.50
2022-09-21T18:36:21.978Z,78.80
2022-09-21T18:39:32.737Z,79.30
2022-09-21T18:42:22.452Z,79.50
2022-09-21T18:44:57.807Z,80.00
2022-09-21T18:47:37.471Z,80.50
2022-09-21T18:50:23.546Z,82.10
2022-09-21T18:53:01.898Z,82.10
2022-09-21T18:55:32.815Z,84.30
2022-09-21T18:58:00.795Z,86.80
2022-09-21T19:00:32.454Z,89.50
2022-09-21T19:03:16.579Z,90.70
2022-09-21T19:06:09.224Z,91.90
2022-09-21T19:08:56.565Z,92.60
2022-09-21T19:11:34.852Z,93.10
2022-09-21T19:14:09.736Z,93.70
2022-09-21T19:16:47.886Z,94.20
2022-09-21T19:19:40.405Z,94.70
2022-09-21T19:22:26.972Z,95.20
2022-09-21T19:25:12.411Z,95.50
2022-09-21T19:27:46.991Z,95.50
2022-09-21T19:30:15.877Z,95.60
2022-09-21T19:32:53.178Z,96.00
2022-09-21T19:35:22.313Z,96.00
2022-09-21T19:37:50.690Z,95.90
2022-09-21T19:40:19.514Z,95.90
2022-09-21T19:43:23.481Z,95.50
2022-09-21T19:46:14.791Z,95.70
2022-09-21T19:48:52.166Z,95.80
2022-09-21T19:51:37.762Z,96.00
2022-09-21T19:54:32.353Z,96.20
2022-09-21T19:57:19.687Z,96.20
2022-09-21T19:59:47.897Z,96.10
2022-09-21T20:02:15.840Z,96.40
2022-09-21T20:04:56.237Z,96.40
2022-09-21T20:07:47.478Z,96.40
2022-09-21T20:10:24.122Z,96.50
2022-09-21T20:13:18.543Z,96.40
2022-09-21T20:15:57.018Z,96.60
2022-09-21T20:19:11.692Z,96.20
2022-09-21T20:21:41.727Z,96.80
2022-09-21T20:24:20.326Z,97.30
2022-09-21T20:26:51.008Z,97.60
2022-09-21T20:29:19.914Z,97.50
2022-09-21T20:31:49.159Z,97.30
2022-09-21T20:34:16.082Z,97.00
2022-09-21T20:36:42.953Z,97.00
2022-09-21T20:39:10.177Z,96.90
2022-09-21T20:41:38.030Z,96.90
2022-09-21T20:44:04.956Z,96.90
2022-09-21T20:46:31.846Z,96.80
2022-09-21T20:49:08.774Z,96.90
2022-09-21T20:51:37.266Z,97.30
2022-09-21T20:54:04.474Z,97.40
2022-09-21T20:56:31.806Z,97.20
2022-09-21T20:58:59.328Z,97.10
2022-09-21T21:01:29.281Z,97.10
2022-09-21T21:04:02.780Z,97.10
2022-09-21T21:06:32.681Z,97.20
2022-09-21T21:08:59.779Z,97.10
2022-09-21T21:11:28.140Z,97.30
2022-09-21T21:13:56.109Z,97.00
2022-09-21T21:16:23.543Z,97.00
2022-09-21T21:18:50.807Z,97.10
2022-09-21T21:21:17.674Z,97.20
2022-09-21T21:24:08.204Z,97.10
2022-09-21T21:27:00.352Z,97.30
2022-09-21T21:29:22.812Z,97.40
2022-09-21T21:31:50.101Z,97.90
2022-09-21T21:34:17.146Z,97.70
2022-09-21T21:36:44.134Z,97.40
2022-09-21T21:39:10.980Z,97.40
2022-09-21T21:41:37.878Z,97.30
2022-09-21T21:44:04.817Z,97.30
2022-09-21T21:46:31.763Z,97.50
2022-09-21T21:48:58.730Z,97.60
2022-09-21T21:51:25.706Z,97.70
2022-09-21T21:53:52.556Z,97.60
2022-09-21T21:56:22.645Z,97.50
2022-09-21T21:58:56.555Z,97.60
2022-09-21T22:01:26.688Z,97.50
2022-09-21T22:03:59.255Z,97.70
2022-09-21T22:06:27.671Z,97.70
2022-09-21T22:08:55.805Z,97.90
2022-09-21T22:11:25.456Z,97.80
2022-09-21T22:13:54.135Z,98.10
2022-09-21T22:16:22.876Z,98.00
2022-09-21T22:18:51.117Z,98.00
2022-09-21T22:21:23.275Z,97.90
2022-09-21T22:24:07.277Z,97.90
2022-09-21T22:26:45.278Z,98.50
2022-09-21T22:29:15.599Z,98.50
2022-09-21T22:31:45.089Z,98.40
2022-09-21T22:34:12.630Z,98.40
2022-09-21T22:36:41.628Z,98.40
2022-09-21T22:39:09.208Z,98.40
2022-09-21T22:41:38.527Z,98.90
2022-09-21T22:44:05.881Z,99.10
2022-09-21T22:46:33.842Z,99.30
2022-09-21T22:49:00.750Z,99.50
2022-09-21T22:51:28.816Z,99.50
2022-09-21T22:53:55.715Z,99.40
2022-09-21T22:56:27.932Z,99.20
2022-09-21T22:58:57.333Z,99.60
2022-09-21T23:01:29.602Z,99.70
2022-09-21T23:04:02.203Z,99.60
2022-09-21T23:06:33.386Z,99.70
2022-09-21T23:09:02.263Z,99.90
2022-09-21T23:11:32.395Z,99.90
2022-09-21T23:13:59.887Z,99.90
2022-09-21T23:16:28.751Z,99.80
2022-09-21T23:18:56.882Z,99.90
2022-09-21T23:21:25.148Z,99.90
2022-09-21T23:24:02.308Z,99.90
2022-09-21T23:26:31.994Z,99.90
2022-09-21T23:29:04.492Z,99.90
2022-09-21T23:31:32.442Z,99.90
2022-09-21T23:34:03.422Z,99.90
2022-09-21T23:36:31.764Z,99.80
2022-09-21T23:38:58.962Z,99.90
2022-09-21T23:41:28.976Z,99.90
2022-09-21T23:43:56.801Z,99.90
2022-09-21T23:46:28.205Z,99.90
2022-09-21T23:48:55.527Z,99.90
2022-09-21T23:51:22.765Z,99.90
2022-09-21T23:53:49.589Z,99.90
2022-09-21T23:56:20.189Z,99.90
2022-09-21T23:58:48.274Z,99.90
